Terminal Aerodrome Forecast
Issued by NWS

Home | Current Version | Previous Version | Text Only | Print | Product List | Glossary On
Versions: 1 2 3 4 5 6 7 8 9 10 11 12 13 14 15 16 17 18 19 20 21
000
FTUS46 KSEW 222300
TAFCLM
TAF
KCLM 222329Z 2300/2324 29009KT P6SM VCSH BKN015 BKN110 OVC250
      TEMPO 2300/2303 -SHRA
     FM230300 28009KT P6SM VCSH OVC009
     FM231800 32006KT P6SM OVC020
     FM232100 32008KT P6SM VCSH SCT030 BKN110 BKN250
      TEMPO 2321/2324 BKN030 BKN110 BKN250=

USA.gov is the U.S. government's official web portal to all federal, state and local government web resources and services.